Time;durP1;ratioP1;P1;durP2;ratioP2;P2;SDS_P1;SDS_P2;PMS_P1;PMS_P2;Temp;Humidity;BMP_temperature;BMP_pressure;BME280_temperature;BME280_humidity;BME280_pressure;Samples;Min_cycle;Max_cycle;Signal;HPM_P1;HPM_P2
2022/06/14 00:00:55;;;;;;;;;;;30.60;28.20;;;;;;21247260;28;19923;-60
2022/06/14 00:10:57;;;;;;;;;;;30.40;28.50;;;;;;21247325;28;19931;-62
2022/06/14 00:20:59;;;;;;;;;;;30.40;28.90;;;;;;21250972;27;20026;-62
2022/06/14 00:31:05;;;;;;;;;;;30.40;29.00;;;;;;21263720;27;19927;-60
2022/06/14 00:41:13;;;;;;;;;;;30.30;28.20;;;;;;21262971;27;19927;-61
2022/06/14 00:51:17;;;;;;;;;;;30.20;27.70;;;;;;21261079;27;19923;-60
2022/06/14 01:01:21;;;;;;;;;;;30.20;27.50;;;;;;21261145;27;19981;-66
2022/06/14 01:11:27;;;;;;;;;;;30.20;27.30;;;;;;21241611;27;19927;-60
2022/06/14 01:21:29;;;;;;;;;;;30.10;27.50;;;;;;21260640;27;20371;-66
2022/06/14 01:31:31;;;;;;;;;;;30.00;27.40;;;;;;21258440;27;20013;-60
2022/06/14 01:41:53;;;;;;;;;;;29.90;27.40;;;;;;21258263;27;19923;-59
2022/06/14 01:52:03;;;;;;;;;;;29.70;27.60;;;;;;21257254;27;19983;-58
2022/06/14 02:02:14;;;;;;;;;;;29.60;28.20;;;;;;21255998;27;19969;-61
2022/06/14 02:12:34;;;;;;;;;;;29.40;28.20;;;;;;21255588;27;20022;-60
2022/06/14 02:22:51;;;;;;;;;;;29.40;28.70;;;;;;21253918;27;19938;-59
2022/06/14 02:33:17;;;;;;;;;;;29.20;28.80;;;;;;21253491;27;19978;-64
2022/06/14 02:43:41;;;;;;;;;;;28.70;32.00;;;;;;21251980;27;19924;-59
2022/06/14 02:53:49;;;;;;;;;;;28.00;32.80;;;;;;21234148;27;20021;-59
2022/06/14 03:04:06;;;;;;;;;;;27.40;33.20;;;;;;21251625;27;19927;-60
2022/06/14 03:14:20;;;;;;;;;;;27.10;33.30;;;;;;21250784;27;19931;-60
2022/06/14 03:24:37;;;;;;;;;;;26.80;33.00;;;;;;21250004;27;19924;-65
2022/06/14 03:34:51;;;;;;;;;;;26.70;33.30;;;;;;21248768;27;19927;-61
2022/06/14 03:44:54;;;;;;;;;;;26.60;33.40;;;;;;21248709;27;20379;-63
2022/06/14 03:54:59;;;;;;;;;;;26.60;33.80;;;;;;21251627;27;20427;-64
2022/06/14 04:05:08;;;;;;;;;;;26.50;34.20;;;;;;21265017;27;20006;-63
2022/06/14 04:15:19;;;;;;;;;;;26.50;34.20;;;;;;21264554;27;20397;-63
2022/06/14 04:25:27;;;;;;;;;;;26.40;34.40;;;;;;21263378;27;20385;-64
2022/06/14 04:35:36;;;;;;;;;;;26.40;34.50;;;;;;21262879;27;19931;-63
2022/06/14 04:45:45;;;;;;;;;;;26.20;35.30;;;;;;21263825;27;20386;-65
2022/06/14 04:55:47;;;;;;;;;;;25.90;35.70;;;;;;21262119;27;19923;-62
2022/06/14 05:06:09;;;;;;;;;;;25.90;35.80;;;;;;21259438;27;19963;-61
2022/06/14 05:16:12;;;;;;;;;;;25.90;35.50;;;;;;21259327;27;19924;-60
2022/06/14 05:26:23;;;;;;;;;;;25.90;36.00;;;;;;21257766;27;19985;-65
2022/06/14 05:36:27;;;;;;;;;;;25.90;36.10;;;;;;21257420;27;19976;-64
2022/06/14 05:46:34;;;;;;;;;;;25.70;36.70;;;;;;21256648;27;19952;-61
2022/06/14 05:56:45;;;;;;;;;;;25.60;36.50;;;;;;21255937;27;20006;-66
2022/06/14 06:06:49;;;;;;;;;;;25.60;36.50;;;;;;21255166;27;19923;-62
2022/06/14 06:17:02;;;;;;;;;;;26.20;35.60;;;;;;21253670;27;19924;-60
2022/06/14 06:27:08;;;;;;;;;;;26.70;35.30;;;;;;21255581;27;20366;-61
2022/06/14 06:37:25;;;;;;;;;;;27.00;34.80;;;;;;21252302;27;19930;-60
2022/06/14 06:47:28;;;;;;;;;;;27.30;34.50;;;;;;21252991;27;19923;-64
2022/06/14 06:57:31;;;;;;;;;;;27.70;34.00;;;;;;21250795;27;20232;-67
2022/06/14 07:07:43;;;;;;;;;;;28.60;31.40;;;;;;21251231;27;19931;-67
2022/06/14 07:17:44;;;;;;;;;;;29.20;30.90;;;;;;21251624;27;19923;-60
2022/06/14 07:27:49;;;;;;;;;;;29.60;29.80;;;;;;21248548;27;19923;-67
2022/06/14 07:38:24;;;;;;;;;;;30.10;29.40;;;;;;21249111;27;19988;-63
2022/06/14 07:48:28;;;;;;;;;;;30.70;28.80;;;;;;20821118;28;20506;-66
2022/06/14 07:58:33;;;;;;;;;;;31.10;27.70;;;;;;20823207;28;20266;-61
2022/06/14 08:08:36;;;;;;;;;;;31.50;27.60;;;;;;20822031;28;20288;-62
2022/06/14 08:18:50;;;;;;;;;;;31.60;27.20;;;;;;20953018;28;20295;-68
2022/06/14 08:29:03;;;;;;;;;;;31.70;27.50;;;;;;21246751;28;20026;-60
2022/06/14 08:39:10;;;;;;;;;;;32.00;27.00;;;;;;21246166;28;19931;-68
2022/06/14 08:49:11;;;;;;;;;;;32.10;27.10;;;;;;21261890;27;19959;-70
2022/06/14 08:59:21;;;;;;;;;;;32.60;26.30;;;;;;21243118;27;20468;-64
2022/06/14 09:09:34;;;;;;;;;;;32.80;26.20;;;;;;21260519;27;19931;-62
2022/06/14 09:19:48;;;;;;;;;;;33.30;25.90;;;;;;21259913;27;20439;-64
2022/06/14 09:30:08;;;;;;;;;;;33.70;25.30;;;;;;21259686;27;19923;-63
2022/06/14 09:40:29;;;;;;;;;;;33.80;25.70;;;;;;21258315;27;19931;-64
2022/06/14 09:50:34;;;;;;;;;;;34.10;25.50;;;;;;21257741;27;20371;-64
2022/06/14 10:00:54;;;;;;;;;;;34.20;24.80;;;;;;21245166;27;19948;-63
2022/06/14 10:11:19;;;;;;;;;;;34.20;24.50;;;;;;21252973;27;19931;-65
2022/06/14 10:21:30;;;;;;;;;;;34.80;24.10;;;;;;21075902;28;20009;-64
2022/06/14 10:31:37;;;;;;;;;;;35.10;23.80;;;;;;21059979;28;20371;-63
2022/06/14 10:41:42;;;;;;;;;;;35.20;23.10;;;;;;21075700;28;20023;-70
2022/06/14 10:51:46;;;;;;;;;;;35.30;22.90;;;;;;21100344;27;19927;-74
2022/06/14 11:01:47;;;;;;;;;;;35.60;22.40;;;;;;21255787;27;19923;-71
2022/06/14 11:12:07;;;;;;;;;;;;;;;;;;21267209;27;19911;-66
2022/06/14 11:22:15;;;;;;;;;;;36.60;21.80;;;;;;21269461;27;19924;-68
2022/06/14 11:32:27;;;;;;;;;;;36.40;21.70;;;;;;21255798;27;20313;-71
2022/06/14 11:42:35;;;;;;;;;;;36.20;21.90;;;;;;21251292;27;20473;-67
2022/06/14 11:52:43;;;;;;;;;;;36.30;21.90;;;;;;21254369;28;19924;-65
2022/06/14 12:03:05;;;;;;;;;;;36.70;21.50;;;;;;21248194;28;20423;-64
2022/06/14 12:13:19;;;;;;;;;;;37.20;20.90;;;;;;21247532;28;19924;-64
2022/06/14 12:23:25;;;;;;;;;;;37.50;19.30;;;;;;21261802;27;19923;-63
2022/06/14 12:33:33;;;;;;;;;;;37.50;19.40;;;;;;21263014;27;19974;-64
2022/06/14 12:43:46;;;;;;;;;;;37.80;18.90;;;;;;21262611;27;19924;-66
2022/06/14 12:53:56;;;;;;;;;;;37.50;19.60;;;;;;21261201;27;19930;-65
2022/06/14 13:04:01;;;;;;;;;;;37.80;18.70;;;;;;21260808;27;20010;-65
2022/06/14 13:14:07;;;;;;;;;;;38.00;18.70;;;;;;21260095;27;19923;-67
2022/06/14 13:24:24;;;;;;;;;;;38.10;18.60;;;;;;21259167;27;19928;-65
2022/06/14 13:34:44;;;;;;;;;;;38.10;18.50;;;;;;21256500;27;19923;-66
2022/06/14 13:44:45;;;;;;;;;;;38.10;18.30;;;;;;21258669;27;19923;-65
2022/06/14 13:54:56;;;;;;;;;;;38.50;18.10;;;;;;21271936;27;19934;-64
2022/06/14 14:05:04;;;;;;;;;;;38.60;17.70;;;;;;21255485;27;19927;-65
2022/06/14 14:15:20;;;;;;;;;;;38.60;18.10;;;;;;21255565;27;19927;-65
2022/06/14 14:25:45;;;;;;;;;;;38.10;18.20;;;;;;21269555;27;19988;-64
2022/06/14 14:35:49;;;;;;;;;;;38.50;18.30;;;;;;21254187;27;20356;-64
2022/06/14 14:45:54;;;;;;;;;;;38.40;18.30;;;;;;21251573;27;19923;-64
2022/06/14 14:55:59;;;;;;;;;;;38.30;18.20;;;;;;21250860;27;20021;-64
2022/06/14 15:06:02;;;;;;;;;;;38.20;18.40;;;;;;21250740;27;19923;-62
2022/06/14 15:16:11;;;;;;;;;;;38.20;18.10;;;;;;21250845;27;19985;-64
2022/06/14 15:26:18;;;;;;;;;;;38.40;17.40;;;;;;21168644;27;20022;-60
2022/06/14 15:36:26;;;;;;;;;;;38.60;17.70;;;;;;21135944;28;20390;-61
2022/06/14 15:46:29;;;;;;;;;;;37.60;18.30;;;;;;21146644;28;20260;-63
2022/06/14 15:56:42;;;;;;;;;;;38.20;17.50;;;;;;21161658;28;19985;-63
2022/06/14 16:07:02;;;;;;;;;;;38.50;16.90;;;;;;21162725;28;19934;-63
2022/06/14 16:17:06;;;;;;;;;;;38.30;17.30;;;;;;21143406;28;20022;-63
2022/06/14 16:27:29;;;;;;;;;;;38.30;17.70;;;;;;21144922;28;19924;-63
2022/06/14 16:37:46;;;;;;;;;;;38.30;16.80;;;;;;20901962;28;20333;-67
2022/06/14 16:47:50;;;;;;;;;;;38.30;17.70;;;;;;20902188;28;20405;-67
2022/06/14 16:57:51;;;;;;;;;;;37.90;17.90;;;;;;20900933;28;19925;-63
2022/06/14 17:08:00;;;;;;;;;;;37.70;18.10;;;;;;20966691;28;19928;-61
2022/06/14 17:18:07;;;;;;;;;;;37.60;18.20;;;;;;21175679;28;19976;-63
2022/06/14 17:38:34;;;;;;;;;;;37.50;18.40;;;;;;21174457;28;19928;-64
2022/06/14 17:48:54;;;;;;;;;;;37.40;18.60;;;;;;21171606;28;19924;-65
2022/06/14 17:59:21;;;;;;;;;;;37.30;18.80;;;;;;21171665;28;19928;-63
2022/06/14 18:09:41;;;;;;;;;;;36.90;18.80;;;;;;21171770;28;20056;-64
2022/06/14 18:30:08;;;;;;;;;;;36.30;19.50;;;;;;21164114;28;20265;-72
2022/06/14 18:40:25;;;;;;;;;;;36.10;20.00;;;;;;21163407;27;20022;-70
2022/06/14 18:50:31;;;;;;;;;;;36.00;19.90;;;;;;21163539;28;19964;-66
2022/06/14 19:00:37;;;;;;;;;;;35.80;19.40;;;;;;21167336;28;19971;-66
2022/06/14 19:10:54;;;;;;;;;;;35.60;19.60;;;;;;21147863;28;19931;-67
2022/06/14 19:21:08;;;;;;;;;;;35.50;19.60;;;;;;21165145;28;19947;-63
2022/06/14 19:31:25;;;;;;;;;;;35.30;19.50;;;;;;21178168;28;19978;-66
2022/06/14 19:41:29;;;;;;;;;;;35.00;19.70;;;;;;21168252;28;20452;-67
2022/06/14 19:51:34;;;;;;;;;;;34.80;20.40;;;;;;21162896;28;19946;-64
2022/06/14 20:01:36;;;;;;;;;;;34.50;20.40;;;;;;21164278;28;19930;-74
2022/06/14 20:11:42;;;;;;;;;;;34.30;20.60;;;;;;21162916;28;20406;-64
2022/06/14 20:21:45;;;;;;;;;;;34.30;21.00;;;;;;21118683;28;20333;-70
2022/06/14 20:31:51;;;;;;;;;;;34.20;21.50;;;;;;21077426;28;20342;-72
2022/06/14 20:41:53;;;;;;;;;;;34.10;22.20;;;;;;21089231;28;20026;-72
2022/06/14 20:52:00;;;;;;;;;;;33.90;23.10;;;;;;21073428;28;19928;-73
2022/06/14 21:02:04;;;;;;;;;;;33.70;23.00;;;;;;21092537;28;19931;-69
2022/06/14 21:12:06;;;;;;;;;;;33.60;23.10;;;;;;21074663;28;20010;-70
2022/06/14 21:22:13;;;;;;;;;;;33.40;23.40;;;;;;21090182;28;19977;-63
2022/06/14 21:32:15;;;;;;;;;;;33.20;23.90;;;;;;21089647;28;19924;-67
2022/06/14 21:42:26;;;;;;;;;;;33.10;24.30;;;;;;21088593;28;20007;-68
2022/06/14 21:52:33;;;;;;;;;;;32.90;24.10;;;;;;21087121;28;19924;-64
2022/06/14 22:02:46;;;;;;;;;;;32.80;24.60;;;;;;21087453;28;19975;-63
2022/06/14 22:12:48;;;;;;;;;;;32.70;25.10;;;;;;21086118;28;19924;-62
2022/06/14 22:22:49;;;;;;;;;;;32.50;25.50;;;;;;21137477;28;19931;-62
2022/06/14 22:32:51;;;;;;;;;;;32.10;26.30;;;;;;21169980;28;19931;-64
2022/06/14 22:42:53;;;;;;;;;;;;;;;;;;21172408;28;19931;-63
2022/06/14 22:52:56;;;;;;;;;;;31.40;27.30;;;;;;21168489;28;20374;-64
2022/06/14 23:02:58;;;;;;;;;;;31.20;27.50;;;;;;21167235;28;20016;-62
2022/06/14 23:12:59;;;;;;;;;;;31.10;28.00;;;;;;21167705;28;19974;-70
2022/06/14 23:23:01;;;;;;;;;;;31.00;28.20;;;;;;21129882;28;19967;-71
2022/06/14 23:33:02;;;;;;;;;;;30.80;28.30;;;;;;21165461;28;19930;-69
2022/06/14 23:43:05;;;;;;;;;;;30.80;28.80;;;;;;21164762;28;19963;-70
2022/06/14 23:53:06;;;;;;;;;;;30.60;29.20;;;;;;21145404;28;19924;-66
